Time;durP1;ratioP1;P1;durP2;ratioP2;P2;SDS_P1;SDS_P2;PMS_P1;PMS_P2;Temp;Humidity;BMP_temperature;BMP_pressure;BME280_temperature;BME280_humidity;BME280_pressure;Samples;Min_cycle;Max_cycle;Signal;HPM_P1;HPM_P2
2022/11/24 00:01:15;;;;;;;38.08;8.43;;;;;;;-148.24;100.00;61531.34;5007375;28;20848;-53
2022/11/24 00:03:41;;;;;;;39.45;9.50;;;;;;;-148.24;100.00;61531.34;5008389;28;20038;-53
2022/11/24 00:06:09;;;;;;;42.58;10.30;;;;;;;-148.24;100.00;61531.34;5006894;28;20860;-56
2022/11/24 00:08:35;;;;;;;30.52;7.28;;;;;;;-148.24;100.00;61531.34;5008847;28;20042;-54
2022/11/24 00:11:09;;;;;;;34.88;8.55;;;;;;;-148.24;100.00;61531.34;5007971;28;20033;-54
2022/11/24 00:13:37;;;;;;;24.42;5.18;;;;;;;-148.24;100.00;61531.34;5009812;28;20061;-54
2022/11/24 00:16:30;;;;;;;40.92;9.68;;;;;;;-148.24;100.00;61531.34;5007708;28;20045;-54
2022/11/24 00:18:58;;;;;;;29.05;6.97;;;;;;;-148.24;100.00;61531.34;5007828;28;20077;-55
2022/11/24 00:21:25;;;;;;;24.92;6.53;;;;;;;-148.24;100.00;61531.34;5007286;28;20045;-53
2022/11/24 00:23:51;;;;;;;33.90;7.97;;;;;;;-148.24;100.00;61531.34;5006609;28;20518;-54
2022/11/24 00:26:30;;;;;;;38.90;9.32;;;;;;;-148.24;100.00;61531.34;5007437;28;20049;-53
2022/11/24 00:28:58;;;;;;;35.38;9.15;;;;;;;-148.24;100.00;61531.34;5008788;28;20018;-54
2022/11/24 00:31:24;;;;;;;37.20;8.88;;;;;;;-148.24;100.00;61531.34;5005618;28;20091;-54
2022/11/24 00:33:52;;;;;;;30.58;7.97;;;;;;;-148.24;100.00;61531.34;5008725;28;20563;-53
2022/11/24 00:36:19;;;;;;;33.35;8.13;;;;;;;-148.24;100.00;61531.34;5008237;28;20037;-54
2022/11/24 00:38:45;;;;;;;37.20;9.48;;;;;;;-148.24;100.00;61531.34;5009560;28;20021;-56
2022/11/24 00:41:11;;;;;;;32.25;8.27;;;;;;;-148.24;100.00;61531.34;5006700;28;20045;-55
2022/11/24 00:43:36;;;;;;;34.33;8.65;;;;;;;-148.24;100.00;61531.34;5008638;28;20021;-54
2022/11/24 00:46:02;;;;;;;38.00;9.73;;;;;;;-148.24;100.00;61531.34;5008847;28;20124;-54
2022/11/24 00:48:27;;;;;;;39.40;9.45;;;;;;;-148.24;100.00;61531.34;5007787;28;20026;-55
2022/11/24 00:50:58;;;;;;;35.85;9.75;;;;;;;-148.24;100.00;61531.34;5007860;28;20045;-54
2022/11/24 00:53:24;;;;;;;34.45;7.35;;;;;;;-148.24;100.00;61531.34;5006049;28;20553;-57
2022/11/24 00:55:49;;;;;;;34.83;8.73;;;;;;;-148.24;100.00;61531.34;5006140;28;20037;-54
2022/11/24 00:58:15;;;;;;;33.15;8.98;;;;;;;-148.24;100.00;61531.34;5009713;28;20660;-55
2022/11/24 01:00:40;;;;;;;46.80;11.10;;;;;;;-148.24;100.00;61531.34;5004839;28;20049;-53
2022/11/24 01:03:06;;;;;;;29.83;8.73;;;;;;;-148.24;100.00;61531.34;5008123;28;20057;-54
2022/11/24 01:05:35;;;;;;;32.75;9.88;;;;;;;-148.24;100.00;61531.34;5008092;28;20033;-54
2022/11/24 01:08:00;;;;;;;32.92;8.98;;;;;;;-148.24;100.00;61531.34;5013512;28;20691;-54
2022/11/24 01:10:25;;;;;;;33.03;10.15;;;;;;;-148.24;100.00;61531.34;5006062;28;20492;-54
2022/11/24 01:12:51;;;;;;;36.85;9.35;;;;;;;-148.24;100.00;61531.34;5007698;28;20548;-54
2022/11/24 01:15:16;;;;;;;40.10;9.77;;;;;;;-148.24;100.00;61531.34;5006516;28;20726;-55
2022/11/24 01:17:41;;;;;;;43.20;10.38;;;;;;;-148.24;100.00;61531.34;5007680;28;20354;-54
2022/11/24 01:20:08;;;;;;;36.58;9.02;;;;;;;-148.24;100.00;61531.34;5004903;28;20053;-53
2022/11/24 01:22:33;;;;;;;37.70;9.82;;;;;;;-148.24;100.00;61531.34;5007407;28;20602;-55
2022/11/24 01:24:59;;;;;;;52.13;10.85;;;;;;;-148.24;100.00;61531.34;5006527;28;20167;-53
2022/11/24 01:27:24;;;;;;;37.50;9.35;;;;;;;-148.24;100.00;61531.34;5006796;28;20519;-54
2022/11/24 01:29:49;;;;;;;39.63;10.43;;;;;;;-148.24;100.00;61531.34;5007243;28;20026;-55
2022/11/24 01:32:15;;;;;;;39.60;9.25;;;;;;;-148.24;100.00;61531.34;5020113;28;20044;-55
2022/11/24 01:34:40;;;;;;;47.30;10.65;;;;;;;-148.24;100.00;61531.34;5007277;28;20144;-53
2022/11/24 01:37:05;;;;;;;45.60;10.30;;;;;;;-148.24;100.00;61531.34;5006575;28;20038;-54
2022/11/24 01:39:31;;;;;;;35.70;9.45;;;;;;;-148.24;100.00;61531.34;5008096;28;20246;-53
2022/11/24 01:42:00;;;;;;;34.08;9.45;;;;;;;-148.24;100.00;61531.34;5005442;28;20030;-54
2022/11/24 01:44:28;;;;;;;38.30;9.27;;;;;;;-148.24;100.00;61531.34;5007710;28;20032;-53
2022/11/24 01:47:12;;;;;;;42.42;9.75;;;;;;;-148.24;100.00;61531.34;5007641;28;20564;-53
2022/11/24 01:49:47;;;;;;;43.53;10.57;;;;;;;-148.24;100.00;61531.34;5006384;28;20032;-54
2022/11/24 01:52:17;;;;;;;51.88;10.88;;;;;;;-148.24;100.00;61531.34;5004050;28;20068;-54
2022/11/24 01:54:47;;;;;;;40.65;9.95;;;;;;;-148.24;100.00;61531.34;5006690;28;20655;-56
2022/11/24 01:57:23;;;;;;;41.60;9.88;;;;;;;-148.24;100.00;61531.34;5006777;28;20045;-53
2022/11/24 01:59:53;;;;;;;54.72;11.07;;;;;;;-148.24;100.00;61531.34;5006909;28;20028;-53
2022/11/24 02:17:40;;;;;;;119.60;18.20;;;;;;;-148.24;100.00;61531.34;6021326;23;20545;-55
2022/11/24 02:33:02;;;;;;;186.63;24.08;;;;;;;-148.24;100.00;61531.34;5923268;23;21556;-55
2022/11/24 02:50:58;;;;;;;118.75;18.88;;;;;;;-148.24;100.00;61531.34;5931834;23;20009;-57
2022/11/24 03:01:09;;;;;;;64.43;11.95;;;;;;;-148.24;100.00;61531.34;5413753;23;20042;-56
2022/11/24 03:03:34;;;;;;;43.25;8.55;;;;;;;-148.24;100.00;61531.34;4960703;28;20081;-58
2022/11/24 03:06:00;;;;;;;32.83;7.82;;;;;;;-148.24;100.00;61531.34;4965285;28;20049;-57
2022/11/24 03:08:25;;;;;;;43.88;8.25;;;;;;;-148.24;100.00;61531.34;4965755;28;20054;-55
2022/11/24 03:10:50;;;;;;;35.95;8.40;;;;;;;-148.24;100.00;61531.34;4963633;28;20041;-58
2022/11/24 03:13:16;;;;;;;36.95;7.80;;;;;;;-148.24;100.00;61531.34;4966387;28;20023;-57
2022/11/24 03:15:41;;;;;;;32.00;6.97;;;;;;;-148.24;100.00;61531.34;4965281;28;21073;-56
2022/11/24 03:18:06;;;;;;;29.95;7.18;;;;;;;-148.24;100.00;61531.34;4965242;28;20033;-56
2022/11/24 03:20:32;;;;;;;39.78;7.53;;;;;;;-148.24;100.00;61531.34;4963933;28;20057;-56
2022/11/24 03:22:57;;;;;;;32.40;7.88;;;;;;;-148.24;100.00;61531.34;4965726;28;20038;-56
2022/11/24 03:25:23;;;;;;;32.40;7.60;;;;;;;-148.24;100.00;61531.34;4965886;28;20098;-57
2022/11/24 03:27:48;;;;;;;43.65;10.40;;;;;;;-148.24;100.00;61531.34;4965929;28;20035;-56
2022/11/24 03:30:14;;;;;;;41.65;8.70;;;;;;;-148.24;100.00;61531.34;4967021;28;20647;-55
2022/11/24 03:32:40;;;;;;;39.42;8.30;;;;;;;-148.24;100.00;61531.34;4967348;28;20403;-56
2022/11/24 03:35:06;;;;;;;33.95;7.82;;;;;;;-148.24;100.00;61531.34;4967180;28;20026;-57
2022/11/24 03:37:31;;;;;;;37.53;8.32;;;;;;;-148.24;100.00;61531.34;4964920;28;20038;-58
2022/11/24 03:39:57;;;;;;;46.38;9.75;;;;;;;-148.24;100.00;61531.34;4964913;28;20026;-55
2022/11/24 03:42:22;;;;;;;40.28;9.07;;;;;;;-148.24;100.00;61531.34;4966954;28;20108;-56
2022/11/24 03:44:47;;;;;;;38.60;9.13;;;;;;;-148.24;100.00;61531.34;4966840;28;20065;-56
2022/11/24 03:47:13;;;;;;;45.85;9.63;;;;;;;-148.24;100.00;61531.34;4966002;28;20572;-55
2022/11/24 03:49:40;;;;;;;41.92;9.48;;;;;;;-148.24;100.00;61531.34;4966463;28;20475;-55
2022/11/24 03:52:06;;;;;;;47.85;9.68;;;;;;;-148.24;100.00;61531.34;4967652;28;20122;-55
2022/11/24 03:54:31;;;;;;;39.17;9.35;;;;;;;-148.24;100.00;61531.34;4967455;28;20113;-55
2022/11/24 03:56:56;;;;;;;38.60;8.50;;;;;;;-148.24;100.00;61531.34;4966314;28;20655;-55
2022/11/24 03:59:22;;;;;;;43.67;9.38;;;;;;;-148.24;100.00;61531.34;4964196;28;20665;-55
2022/11/24 04:01:47;;;;;;;41.13;8.65;;;;;;;-148.24;100.00;61531.34;4968057;28;20491;-55
2022/11/24 04:04:13;;;;;;;44.53;9.07;;;;;;;-148.24;100.00;61531.34;4967084;28;20053;-55
2022/11/24 04:06:39;;;;;;;45.63;9.15;;;;;;;-148.24;100.00;61531.34;4965741;28;20305;-56
2022/11/24 04:09:05;;;;;;;42.80;8.02;;;;;;;-148.24;100.00;61531.34;4966372;28;20027;-59
2022/11/24 04:14:14;;;;;;;38.22;9.27;;;;;;;-148.24;100.00;61531.34;4966122;28;20085;-57
2022/11/24 04:16:39;;;;;;;40.58;8.35;;;;;;;-148.24;100.00;61531.34;4965954;28;20035;-56
2022/11/24 04:19:05;;;;;;;38.97;9.30;;;;;;;-148.24;100.00;61531.34;4965840;28;20686;-57
2022/11/24 04:21:30;;;;;;;40.22;8.57;;;;;;;-148.24;100.00;61531.34;4963723;28;20122;-55
2022/11/24 04:23:56;;;;;;;41.55;9.05;;;;;;;-148.24;100.00;61531.34;4964218;28;20034;-56
2022/11/24 04:26:22;;;;;;;32.58;7.30;;;;;;;-148.24;100.00;61531.34;4959954;28;20049;-55
2022/11/24 04:28:47;;;;;;;44.97;8.55;;;;;;;-148.24;100.00;61531.34;4966382;28;20643;-56
2022/11/24 04:31:12;;;;;;;35.67;7.90;;;;;;;-148.24;100.00;61531.34;4964885;28;20150;-55
2022/11/24 04:33:38;;;;;;;38.72;9.20;;;;;;;-148.24;100.00;61531.34;4966262;28;20025;-55
2022/11/24 04:36:03;;;;;;;30.48;8.15;;;;;;;-148.24;100.00;61531.34;4965781;28;20039;-57
2022/11/24 04:38:29;;;;;;;40.75;8.73;;;;;;;-148.24;100.00;61531.34;4966810;28;20122;-56
2022/11/24 04:40:54;;;;;;;33.53;8.25;;;;;;;-148.24;100.00;61531.34;4968903;28;20120;-56
2022/11/24 04:43:20;;;;;;;30.90;7.60;;;;;;;-148.24;100.00;61531.34;4967140;28;20432;-59
2022/11/24 04:45:46;;;;;;;46.10;8.60;;;;;;;-148.24;100.00;61531.34;4962064;28;20052;-55
2022/11/24 04:48:11;;;;;;;36.25;7.75;;;;;;;-148.24;100.00;61531.34;4963863;28;20026;-56
2022/11/24 04:50:37;;;;;;;44.35;8.63;;;;;;;-148.24;100.00;61531.34;4965333;28;20038;-55
2022/11/24 04:53:03;;;;;;;35.88;7.88;;;;;;;-148.24;100.00;61531.34;4967048;28;20611;-56
2022/11/24 04:55:28;;;;;;;36.03;7.50;;;;;;;-148.24;100.00;61531.34;4964968;28;20675;-54
2022/11/24 04:57:54;;;;;;;39.95;8.05;;;;;;;-148.24;100.00;61531.34;4964510;28;20022;-55
2022/11/24 05:00:20;;;;;;;31.60;7.68;;;;;;;-148.24;100.00;61531.34;4963585;28;20043;-57
2022/11/24 05:02:45;;;;;;;37.50;7.80;;;;;;;-148.24;100.00;61531.34;4965055;28;20542;-55
2022/11/24 05:05:11;;;;;;;33.63;6.93;;;;;;;-148.24;100.00;61531.34;4965185;28;20037;-57
2022/11/24 05:07:36;;;;;;;30.02;5.82;;;;;;;-148.24;100.00;61531.34;4977955;28;20121;-55
2022/11/24 05:12:54;;;;;;;34.08;6.88;;;;;;;-148.24;100.00;61531.34;4966886;28;20042;-56
2022/11/24 05:15:19;;;;;;;42.97;7.43;;;;;;;-148.24;100.00;61531.34;4963987;28;20022;-57
2022/11/24 05:17:44;;;;;;;36.35;6.90;;;;;;;-148.24;100.00;61531.34;4966880;28;20627;-55
2022/11/24 05:20:10;;;;;;;33.53;6.90;;;;;;;-148.24;100.00;61531.34;4965770;28;20523;-56
2022/11/24 05:22:35;;;;;;;34.78;6.95;;;;;;;-148.24;100.00;61531.34;4962723;28;20046;-55
2022/11/24 05:25:00;;;;;;;33.58;6.60;;;;;;;-148.24;100.00;61531.34;4965820;28;20057;-56
2022/11/24 05:27:26;;;;;;;37.47;7.65;;;;;;;-148.24;100.00;61531.34;4965240;28;20517;-55
2022/11/24 05:29:51;;;;;;;40.35;7.60;;;;;;;-148.24;100.00;61531.34;4965951;28;20117;-55
2022/11/24 05:32:16;;;;;;;44.28;8.27;;;;;;;-148.24;100.00;61531.34;4965437;28;20062;-56
2022/11/24 05:34:42;;;;;;;31.52;6.65;;;;;;;-148.24;100.00;61531.34;4965250;28;20646;-55
2022/11/24 05:37:07;;;;;;;44.10;8.32;;;;;;;-148.24;100.00;61531.34;4963909;28;20045;-56
2022/11/24 05:39:34;;;;;;;41.70;8.20;;;;;;;-148.24;100.00;61531.34;4966060;28;20106;-55
2022/11/24 05:42:39;;;;;;;41.20;8.23;;;;;;;-148.24;100.00;61531.34;4966153;28;20046;-55
2022/11/24 05:44:46;;;;;;;40.08;7.57;;;;;;;-148.24;100.00;61531.34;4965412;28;20488;-58
2022/11/24 05:47:12;;;;;;;40.38;7.88;;;;;;;-148.24;100.00;61531.34;4963938;28;20105;-55
2022/11/24 05:49:37;;;;;;;49.95;8.75;;;;;;;-148.24;100.00;61531.34;4968435;28;20491;-55
2022/11/24 05:52:02;;;;;;;31.42;7.35;;;;;;;-148.24;100.00;61531.34;4969817;28;20550;-55
2022/11/24 05:54:28;;;;;;;39.03;7.88;;;;;;;-148.24;100.00;61531.34;4968163;28;20098;-57
2022/11/24 05:56:54;;;;;;;39.22;7.45;;;;;;;-148.24;100.00;61531.34;4969214;28;20049;-55
2022/11/24 05:59:20;;;;;;;27.60;7.13;;;;;;;-148.24;100.00;61531.34;4969783;28;20031;-55
2022/11/24 06:01:45;;;;;;;43.50;7.30;;;;;;;-148.24;100.00;61531.34;4969203;28;20058;-56
2022/11/24 06:04:10;;;;;;;22.27;6.28;;;;;;;-148.24;100.00;61531.34;4968599;28;20094;-55
2022/11/24 06:06:36;;;;;;;33.17;7.20;;;;;;;-148.24;100.00;61531.34;4967944;28;20049;-57
2022/11/24 06:09:01;;;;;;;32.65;6.55;;;;;;;-148.24;100.00;61531.34;4967394;28;20064;-55
2022/11/24 06:11:27;;;;;;;37.33;7.38;;;;;;;-148.24;100.00;61531.34;4967067;28;20038;-55
2022/11/24 06:13:52;;;;;;;36.92;7.68;;;;;;;-148.24;100.00;61531.34;4967821;28;20026;-55
2022/11/24 06:16:17;;;;;;;34.85;7.03;;;;;;;-148.24;100.00;61531.34;4968676;28;20096;-55
2022/11/24 06:18:43;;;;;;;34.28;7.22;;;;;;;-148.24;100.00;61531.34;4968402;28;20029;-56
2022/11/24 06:21:08;;;;;;;33.50;6.57;;;;;;;-148.24;100.00;61531.34;4968323;28;20141;-58
2022/11/24 06:23:34;;;;;;;32.97;7.05;;;;;;;-148.24;100.00;61531.34;4969848;28;20108;-57
2022/11/24 06:26:00;;;;;;;33.90;6.75;;;;;;;-148.24;100.00;61531.34;4968556;28;20540;-56
2022/11/24 06:28:26;;;;;;;35.90;7.32;;;;;;;-148.24;100.00;61531.34;4968950;28;20026;-55
2022/11/24 06:30:52;;;;;;;33.42;6.53;;;;;;;-148.24;100.00;61531.34;4968830;28;20756;-55
2022/11/24 06:33:18;;;;;;;36.38;7.30;;;;;;;-148.24;100.00;61531.34;4964844;28;20034;-55
2022/11/24 06:35:43;;;;;;;43.28;7.18;;;;;;;-148.24;100.00;61531.34;4965744;28;20038;-55
2022/11/24 06:38:08;;;;;;;45.03;7.88;;;;;;;-148.24;100.00;61531.34;4967518;28;20130;-55
2022/11/24 06:40:34;;;;;;;34.65;7.40;;;;;;;-148.24;100.00;61531.34;4966254;28;20033;-55
2022/11/24 06:42:59;;;;;;;42.03;7.38;;;;;;;-148.24;100.00;61531.34;4968120;28;20034;-55
2022/11/24 06:45:25;;;;;;;43.75;7.18;;;;;;;-148.24;100.00;61531.34;4967498;28;20018;-57
2022/11/24 06:47:54;;;;;;;38.53;6.78;;;;;;;-148.24;100.00;61531.34;4968220;28;20064;-57
2022/11/24 06:50:20;;;;;;;43.20;6.97;;;;;;;-148.24;100.00;61531.34;4966275;28;20040;-58
2022/11/24 06:52:45;;;;;;;40.00;6.88;;;;;;;-148.24;100.00;61531.34;4969361;28;20038;-57
2022/11/24 06:55:11;;;;;;;38.25;7.47;;;;;;;-148.24;100.00;61531.34;4983613;28;20113;-57
2022/11/24 06:57:36;;;;;;;33.33;7.43;;;;;;;-148.24;100.00;61531.34;4966199;28;20126;-57
2022/11/24 07:00:04;;;;;;;28.13;6.95;;;;;;;-148.24;100.00;61531.34;4966132;28;20113;-55
2022/11/24 07:02:29;;;;;;;43.22;7.68;;;;;;;-148.24;100.00;61531.34;4967064;28;20058;-56
2022/11/24 07:04:55;;;;;;;36.28;6.80;;;;;;;-148.24;100.00;61531.34;4966535;28;20026;-55
2022/11/24 07:07:20;;;;;;;32.97;6.88;;;;;;;-148.24;100.00;61531.34;4967231;28;20043;-56
2022/11/24 07:09:46;;;;;;;35.20;6.85;;;;;;;-148.24;100.00;61531.34;4966802;28;20937;-55
2022/11/24 07:12:11;;;;;;;46.38;8.45;;;;;;;-148.24;100.00;61531.34;4965108;28;20046;-57
2022/11/24 07:14:36;;;;;;;39.58;7.28;;;;;;;-148.24;100.00;61531.34;4964194;28;21010;-56
2022/11/24 07:17:03;;;;;;;34.58;6.68;;;;;;;-148.24;100.00;61531.34;4967266;28;20046;-56
2022/11/24 07:19:29;;;;;;;44.50;6.70;;;;;;;-148.24;100.00;61531.34;4966021;28;20035;-55
2022/11/24 07:21:54;;;;;;;37.78;6.32;;;;;;;-148.24;100.00;61531.34;4967691;28;20072;-55
2022/11/24 07:24:20;;;;;;;25.35;5.85;;;;;;;-148.24;100.00;61531.34;4967464;28;20022;-56
2022/11/24 07:26:45;;;;;;;37.45;5.93;;;;;;;-148.24;100.00;61531.34;4967893;28;20125;-56
2022/11/24 07:29:10;;;;;;;38.80;6.43;;;;;;;-148.24;100.00;61531.34;4970783;28;20030;-54
2022/11/24 07:31:36;;;;;;;24.83;5.28;;;;;;;-148.24;100.00;61531.34;4967029;28;20050;-55
2022/11/24 07:34:01;;;;;;;27.42;5.32;;;;;;;-148.24;100.00;61531.34;4970640;28;20022;-54
2022/11/24 07:36:26;;;;;;;29.83;5.20;;;;;;;-148.24;100.00;61531.34;4967834;28;20039;-53
2022/11/24 07:38:52;;;;;;;34.00;6.93;;;;;;;-148.24;100.00;61531.34;4966482;28;20030;-54
2022/11/24 07:41:18;;;;;;;46.80;9.95;;;;;;;-148.24;100.00;61531.34;4966977;28;20536;-54
2022/11/24 07:43:44;;;;;;;61.67;14.57;;;;;;;-148.24;100.00;61531.34;4965317;28;20050;-55
2022/11/24 07:46:12;;;;;;;29.38;5.72;;;;;;;-148.24;100.00;61531.34;4963244;28;20038;-53
2022/11/24 07:48:37;;;;;;;21.80;4.13;;;;;;;-148.24;100.00;61531.34;4965164;28;20527;-53
2022/11/24 07:51:03;;;;;;;27.38;5.55;;;;;;;-148.24;100.00;61531.34;4965499;28;20034;-54
2022/11/24 07:53:30;;;;;;;27.20;5.47;;;;;;;-148.24;100.00;61531.34;4965724;28;20106;-54
2022/11/24 07:56:00;;;;;;;27.27;5.63;;;;;;;-148.24;100.00;61531.34;4966846;28;20042;-54
2022/11/24 07:58:28;;;;;;;24.33;5.53;;;;;;;-148.24;100.00;61531.34;4964218;28;20081;-54
2022/11/24 08:00:53;;;;;;;31.20;6.07;;;;;;;-148.24;100.00;61531.34;4962304;28;20828;-55
2022/11/24 08:03:18;;;;;;;23.90;5.10;;;;;;;-148.24;100.00;61531.34;4963188;28;20133;-55
2022/11/24 08:05:58;;;;;;;23.77;4.95;;;;;;;-148.24;100.00;61531.34;4965040;28;20043;-54
2022/11/24 08:08:25;;;;;;;20.65;4.53;;;;;;;-148.24;100.00;61531.34;4964660;28;20031;-58
2022/11/24 08:10:50;;;;;;;28.05;4.63;;;;;;;-148.24;100.00;61531.34;4966405;28;20065;-55
2022/11/24 08:13:17;;;;;;;22.95;4.30;;;;;;;-148.24;100.00;61531.34;4964753;28;20035;-54
2022/11/24 08:15:42;;;;;;;24.40;5.00;;;;;;;-148.24;100.00;61531.34;4962143;28;20042;-56
2022/11/24 08:18:07;;;;;;;23.52;4.53;;;;;;;-148.24;100.00;61531.34;4966788;28;20034;-55
2022/11/24 08:20:33;;;;;;;20.30;3.47;;;;;;;-148.24;100.00;61531.34;4966327;28;20034;-56
2022/11/24 08:22:59;;;;;;;15.13;3.63;;;;;;;-148.24;100.00;61531.34;4968372;28;20113;-55
2022/11/24 08:25:31;;;;;;;27.75;5.38;;;;;;;-148.24;100.00;61531.34;4966705;28;20147;-55
2022/11/24 08:28:01;;;;;;;22.85;4.45;;;;;;;-148.24;100.00;61531.34;4967976;28;20038;-54
2022/11/24 08:30:27;;;;;;;19.60;4.00;;;;;;;-148.24;100.00;61531.34;4966141;28;20157;-55
2022/11/24 08:32:53;;;;;;;25.30;3.88;;;;;;;-148.24;100.00;61531.34;4964029;28;20026;-58
2022/11/24 08:35:18;;;;;;;21.95;5.00;;;;;;;-148.24;100.00;61531.34;4965283;28;20018;-53
2022/11/24 08:37:43;;;;;;;25.02;5.07;;;;;;;-148.24;100.00;61531.34;4965302;28;20924;-55
2022/11/24 08:40:10;;;;;;;21.98;4.10;;;;;;;-148.24;100.00;61531.34;4963171;28;20535;-59
2022/11/24 08:42:35;;;;;;;21.85;4.20;;;;;;;-148.24;100.00;61531.34;4964953;28;20031;-54
2022/11/24 08:45:00;;;;;;;26.92;4.10;;;;;;;-148.24;100.00;61531.34;4968588;28;20052;-56
2022/11/24 08:47:26;;;;;;;20.38;3.78;;;;;;;-148.24;100.00;61531.34;4963294;28;20039;-55
2022/11/24 08:49:51;;;;;;;32.67;5.30;;;;;;;-148.24;100.00;61531.34;4965444;28;20026;-56
2022/11/24 08:52:16;;;;;;;26.83;5.00;;;;;;;-148.24;100.00;61531.34;4965256;28;20464;-58
2022/11/24 08:54:43;;;;;;;26.05;4.72;;;;;;;-148.24;100.00;61531.34;4962988;28;20089;-56
2022/11/24 08:57:09;;;;;;;23.10;4.43;;;;;;;-148.24;100.00;61531.34;4963423;28;20038;-54
2022/11/24 08:59:35;;;;;;;25.75;4.50;;;;;;;-148.24;100.00;61531.34;4966479;28;20027;-54
2022/11/24 09:02:00;;;;;;;22.13;4.07;;;;;;;-148.24;100.00;61531.34;4964055;28;20054;-53
2022/11/24 09:04:26;;;;;;;25.02;4.35;;;;;;;-148.24;100.00;61531.34;4964901;28;20121;-55
2022/11/24 09:06:51;;;;;;;21.17;3.85;;;;;;;-148.24;100.00;61531.34;4966850;28;20092;-54
2022/11/24 09:09:16;;;;;;;24.90;4.53;;;;;;;-148.24;100.00;61531.34;4965159;28;20066;-53
2022/11/24 09:11:42;;;;;;;33.33;4.25;;;;;;;-148.24;100.00;61531.34;4964440;28;20230;-54
2022/11/24 09:14:07;;;;;;;22.45;4.20;;;;;;;-148.24;100.00;61531.34;4968381;28;20082;-56
2022/11/24 09:16:33;;;;;;;20.02;3.20;;;;;;;-148.24;100.00;61531.34;4966274;28;20042;-53
2022/11/24 09:19:03;;;;;;;26.48;4.05;;;;;;;-148.24;100.00;61531.34;4966640;28;20030;-54
2022/11/24 09:21:32;;;;;;;20.15;3.90;;;;;;;-148.24;100.00;61531.34;4965151;28;20742;-55
2022/11/24 09:23:57;;;;;;;23.40;4.05;;;;;;;-148.24;100.00;61531.34;4963258;28;20031;-54
2022/11/24 09:26:28;;;;;;;28.00;4.45;;;;;;;-148.24;100.00;61531.34;4965102;28;20035;-53
2022/11/24 09:28:55;;;;;;;17.27;3.63;;;;;;;-148.24;100.00;61531.34;4966058;28;20113;-55
2022/11/24 09:31:23;;;;;;;21.02;3.90;;;;;;;-148.24;100.00;61531.34;4965411;28;20058;-54
2022/11/24 09:33:50;;;;;;;17.75;3.85;;;;;;;-148.24;100.00;61531.34;4967016;28;20034;-55
2022/11/24 09:36:15;;;;;;;27.20;4.28;;;;;;;-148.24;100.00;61531.34;4963639;28;20054;-53
2022/11/24 09:38:41;;;;;;;23.05;4.15;;;;;;;-148.24;100.00;61531.34;4964536;28;20038;-54
2022/11/24 09:41:31;;;;;;;20.80;4.15;;;;;;;-148.24;100.00;61531.34;4964074;28;20118;-54
2022/11/24 09:44:38;;;;;;;17.00;3.60;;;;;;;-148.24;100.00;61531.34;4965370;28;20705;-54
2022/11/24 09:47:18;;;;;;;21.33;3.88;;;;;;;-148.24;100.00;61531.34;4963011;28;20039;-55
2022/11/24 09:49:52;;;;;;;28.15;4.90;;;;;;;-148.24;100.00;61531.34;4963265;28;20031;-56
2022/11/24 09:52:37;;;;;;;23.30;4.03;;;;;;;-148.24;100.00;61531.34;4964479;28;20907;-54
2022/11/24 09:55:04;;;;;;;20.00;3.45;;;;;;;-148.24;100.00;61531.34;4964143;28;20030;-55
2022/11/24 09:57:34;;;;;;;15.65;3.17;;;;;;;-148.24;100.00;61531.34;4965701;28;20047;-55
2022/11/24 10:00:05;;;;;;;23.83;4.20;;;;;;;-148.24;100.00;61531.34;4964833;28;20062;-53
2022/11/24 10:02:31;;;;;;;21.15;3.90;;;;;;;-148.24;100.00;61531.34;4960700;28;20041;-55
2022/11/24 10:04:56;;;;;;;21.95;3.80;;;;;;;-148.24;100.00;61531.34;4963481;28;20034;-58
2022/11/24 10:07:28;;;;;;;22.80;4.15;;;;;;;-148.24;100.00;61531.34;4962985;28;20137;-57
2022/11/24 10:09:59;;;;;;;26.75;4.90;;;;;;;-148.24;100.00;61531.34;4963344;28;20053;-53
2022/11/24 10:12:28;;;;;;;20.02;3.63;;;;;;;-148.24;100.00;61531.34;4965215;28;20138;-53
2022/11/24 10:15:14;;;;;;;21.52;4.28;;;;;;;-148.24;100.00;61531.34;4965636;28;20022;-53
2022/11/24 10:18:03;;;;;;;16.75;3.42;;;;;;;-148.24;100.00;61531.34;4961550;28;20039;-54
2022/11/24 10:20:47;;;;;;;24.05;3.85;;;;;;;-148.24;100.00;61531.34;4964339;28;20030;-54
2022/11/24 10:23:40;;;;;;;19.65;3.72;;;;;;;-148.24;100.00;61531.34;4964763;28;20191;-56
2022/11/24 10:26:27;;;;;;;21.58;3.85;;;;;;;-148.24;100.00;61531.34;4964483;28;20628;-57
2022/11/24 10:28:55;;;;;;;19.20;3.63;;;;;;;-148.24;100.00;61531.34;4963868;28;20031;-54
2022/11/24 10:31:52;;;;;;;19.50;3.42;;;;;;;-148.24;100.00;61531.34;4962043;28;20042;-56
2022/11/24 10:34:33;;;;;;;19.17;3.58;;;;;;;-148.24;100.00;61531.34;4954653;28;20066;-54
2022/11/24 10:37:10;;;;;;;17.52;3.55;;;;;;;-148.24;100.00;61531.34;4967141;28;20051;-53
2022/11/24 10:39:45;;;;;;;18.23;3.25;;;;;;;-148.24;100.00;61531.34;4966841;28;20121;-55
2022/11/24 10:42:22;;;;;;;21.05;4.10;;;;;;;-148.24;100.00;61531.34;4977344;28;20030;-55
2022/11/24 10:45:02;;;;;;;16.63;3.45;;;;;;;-148.24;100.00;61531.34;4970518;28;20035;-54
2022/11/24 10:47:29;;;;;;;22.52;3.97;;;;;;;-148.24;100.00;61531.34;4968122;28;20053;-55
2022/11/24 10:50:00;;;;;;;20.60;3.90;;;;;;;-148.24;100.00;61531.34;4968513;28;20101;-54
2022/11/24 10:52:29;;;;;;;19.05;3.92;;;;;;;-148.24;100.00;61531.34;4969944;28;20047;-54
2022/11/24 10:54:55;;;;;;;19.02;3.30;;;;;;;-148.24;100.00;61531.34;4968751;28;20038;-56
2022/11/24 10:57:27;;;;;;;21.58;3.83;;;;;;;-148.24;100.00;61531.34;4968172;28;20547;-53
2022/11/24 10:59:52;;;;;;;20.13;3.63;;;;;;;-148.24;100.00;61531.34;4967653;28;20077;-54
2022/11/24 11:02:38;;;;;;;24.98;3.35;;;;;;;-148.24;100.00;61531.34;4968378;28;20141;-53
2022/11/24 11:05:44;;;;;;;20.60;3.35;;;;;;;-148.24;100.00;61531.34;4966320;28;20023;-53
2022/11/24 11:08:12;;;;;;;19.08;3.65;;;;;;;-148.24;100.00;61531.34;4967655;28;20062;-53
2022/11/24 11:10:38;;;;;;;25.73;4.20;;;;;;;-148.24;100.00;61531.34;4968092;28;20064;-53
2022/11/24 11:13:28;;;;;;;21.92;3.95;;;;;;;-148.24;100.00;61531.34;4967030;28;20400;-53
2022/11/24 11:15:55;;;;;;;25.42;4.10;;;;;;;-148.24;100.00;61531.34;4966155;28;20046;-55
2022/11/24 11:18:25;;;;;;;21.98;4.45;;;;;;;-148.24;100.00;61531.34;4968103;28;20034;-54
2022/11/24 11:20:55;;;;;;;25.65;4.55;;;;;;;-148.24;100.00;61531.34;4967318;28;20034;-54
2022/11/24 11:23:27;;;;;;;15.20;2.92;;;;;;;-148.24;100.00;61531.34;4969866;28;20110;-57
2022/11/24 11:26:18;;;;;;;25.23;4.60;;;;;;;-148.24;100.00;61531.34;4965192;28;20038;-55
2022/11/24 11:28:59;;;;;;;29.10;5.22;;;;;;;-148.24;100.00;61531.34;4968223;28;20116;-57
2022/11/24 11:31:25;;;;;;;25.60;4.53;;;;;;;-148.24;100.00;61531.34;4967026;28;20038;-53
2022/11/24 11:34:09;;;;;;;25.98;4.57;;;;;;;-148.24;100.00;61531.34;4966219;28;20565;-54
2022/11/24 11:36:44;;;;;;;25.98;4.55;;;;;;;-148.24;100.00;61531.34;4967146;28;20149;-53
2022/11/24 11:39:31;;;;;;;23.90;4.97;;;;;;;-148.24;100.00;61531.34;4965881;28;20109;-53
2022/11/24 11:42:06;;;;;;;30.83;5.88;;;;;;;-148.24;100.00;61531.34;4965712;28;20039;-54
2022/11/24 11:44:44;;;;;;;22.35;4.65;;;;;;;-148.24;100.00;61531.34;4967013;28;20030;-55
2022/11/24 11:47:22;;;;;;;25.77;5.25;;;;;;;-148.24;100.00;61531.34;4966315;28;20146;-54
2022/11/24 11:49:48;;;;;;;28.15;5.38;;;;;;;-148.24;100.00;61531.34;4965606;28;20039;-54
2022/11/24 11:52:55;;;;;;;35.28;5.72;;;;;;;-148.24;100.00;61531.34;4965355;28;20137;-54
2022/11/24 11:55:41;;;;;;;24.70;3.92;;;;;;;-148.24;100.00;61531.34;4965227;28;20030;-52
2022/11/24 11:58:31;;;;;;;31.05;5.22;;;;;;;-148.24;100.00;61531.34;4965371;28;20031;-53
2022/11/24 12:01:25;;;;;;;23.45;4.45;;;;;;;-148.24;100.00;61531.34;4964291;28;20031;-53
2022/11/24 12:04:12;;;;;;;23.67;4.35;;;;;;;-148.24;100.00;61531.34;4964743;28;20117;-53
2022/11/24 12:06:56;;;;;;;23.40;4.70;;;;;;;-148.24;100.00;61531.34;4965666;28;20703;-54